Lufkin, TX

8:24 PM CDT on April 27, 2015 (GMT -0500)
CITY OF HUDSON | | Change Station
CLOSE
Current Station
Personal Weather Station
Location: Lufkin, TX
Elevation: 351 ft
Nearby Weather Stations

Elev 351 ft 31.33 °N, 94.78 °W | Updated 6 seconds ago

Mostly Cloudy
Mostly Cloudy
68.4 °F
Feels Like 68.4 °F
N
0.6
Wind Variable Wind from NNW
Gusts 0.0 mph

Today
High -- | Low -- °F
--% Chance of Precip.
Yesterday
High -- | Low -- °F
Precip. -- in
6:38 AM 7:55 PM
Waxing Gibbous, 69% visible
Pressure 29.72 in
Visibility 10.0 miles
Clouds Few 3000 ft
Dew Point 65 °F
Humidity 90%
Rainfall 0.23 in
Snow Depth Not available.
UV 0.0 out of 12
Pollen 7.80 out of 12
Air Quality Not available.
Flu Activity Local Activity
METAR KLFK 280053Z AUTO 07006KT 10SM FEW030 22/17 A2973 RMK AO2 SLP064 T02170167 $

More Conditions Fewer Conditions

Pressure 29.72 in
Visibility 10.0 miles
Clouds Few 3000 ft
Dew Point 65 °F
Humidity 90%
Rainfall 0.23 in
Snow Depth Not available.
UV 0.0 out of 12
Pollen 7.80 out of 12
Air Quality Not available.
Flu Activity Local Activity
METAR KLFK 280053Z AUTO 07006KT 10SM FEW030 22/17 A2973 RMK AO2 SLP064 T02170167 $

More Conditions Fewer Conditions

10-Day Weather Forecast

Almanac

Astronomy

Apr. 27, 2015 Rise Set
Actual Time
Civil Twilight
Nautical Twilight
Astronomical Twilight
Moon
Length of Visible Light
Length of Day
Tomorrow will be .
, % of the Moon is Illuminated

Today's Extremes

State Highs State Lows

Community

WunderPhotos

Upload Photos

1,817,508 photos uploaded!

WunderBlogs® & News

Nearby

Air Quality

  Air Quality AQ Index Pollutant
Not available.

Snow Depth

Station Depth Elevation

Earthquake Activity

City Distance Mag. Time & Date
Minimum magnitude displayed is 2.5.

Coastal Water Temperatures

Place Temperature

Stations

Nearby Weather Stations

Station Location Temp. Windchill Dew Point Humidity Wind Precip. Elev Updated Type
                   
Flood Warning
Statement as of 9:03 AM CDT on April 27, 2015

The Flood Warning continues for
the Neches River near Diboll, Texas.
* Until further notice... or until the warning is cancelled.
* At 815 am Monday the stage was 13.6 feet.
* Minor flooding is occurring and minor flooding is forecast.
* Flood stage is 12 feet.
* Forecast... the river will continue rising to near 14.4 feet by
Wednesday morning then begin falling.
* Impact... at 12.0 feet... minor lowland flooding occurs.


Lat... Lon 3138 9492 3107 9455 3103 9459 3111 9485 3136 9500





903 am CDT Mon Apr 27 2015

The Flood Warning continues for
the Angelina river near Lufkin, Texas.
* Until further notice... or until the warning is cancelled.
* At 700 am Monday the stage was 12.4 feet.
* Minor flooding is occurring and minor flooding is forecast.
* Flood stage is 10 feet.
* Forecast... the river will continue rising to near 12.7 feet by
early Tuesday morning and then begin falling by Tuesday afternoon.
* Impact... minor lowland flooding.


Lat... Lon 3144 9462 3145 9474 3148 9482 3150 9482 3146 9466